Time;durP1;ratioP1;P1;durP2;ratioP2;P2;SDS_P1;SDS_P2;PMS_P1;PMS_P2;Temp;Humidity;BMP_temperature;BMP_pressure;BME280_temperature;BME280_humidity;BME280_pressure;Samples;Min_cycle;Max_cycle;Signal;HPM_P1;HPM_P2
2023/06/02 00:02:09;;;;;;;13.17;8.40;;;;;;;14.75;69.05;98557.53;4914372;28;20236;-62
2023/06/02 00:04:41;;;;;;;15.23;8.93;;;;;;;14.72;70.13;98557.88;4912713;28;20587;-62
2023/06/02 00:07:08;;;;;;;11.63;7.90;;;;;;;14.66;71.21;98554.09;4914710;29;20248;-62
2023/06/02 00:09:43;;;;;;;14.53;8.63;;;;;;;14.54;69.99;98550.28;4914841;28;20227;-62
2023/06/02 00:12:11;;;;;;;12.80;7.80;;;;;;;14.50;70.60;98547.22;4916843;28;20623;-62
2023/06/02 00:14:43;;;;;;;14.70;8.10;;;;;;;14.55;70.94;98546.66;4910617;29;20234;-62
2023/06/02 00:17:10;;;;;;;14.07;8.03;;;;;;;14.47;70.75;98548.38;4918270;28;20235;-62
2023/06/02 00:19:42;;;;;;;13.70;7.67;;;;;;;14.47;71.82;98547.56;4917241;28;20305;-62
2023/06/02 00:22:13;;;;;;;12.23;8.20;;;;;;;14.42;70.52;98553.34;4921797;28;20235;-62
2023/06/02 00:24:41;;;;;;;16.57;7.90;;;;;;;14.37;69.71;98558.31;4916128;28;20246;-62
2023/06/02 00:27:08;;;;;;;16.77;8.03;;;;;;;14.31;72.17;98538.84;4922019;28;20648;-62
2023/06/02 00:29:42;;;;;;;12.80;8.27;;;;;;;14.24;71.27;98548.41;4916974;28;20310;-62
2023/06/02 00:32:09;;;;;;;14.27;8.00;;;;;;;14.15;71.69;98541.59;4918542;28;20241;-62
2023/06/02 00:34:41;;;;;;;12.20;7.67;;;;;;;14.08;72.62;98546.72;4918200;28;20223;-62
2023/06/02 00:37:08;;;;;;;12.90;7.40;;;;;;;14.07;74.02;98549.50;4919747;29;20235;-62
2023/06/02 00:39:41;;;;;;;13.23;7.90;;;;;;;13.99;72.92;98553.81;4914011;28;20236;-62
2023/06/02 00:42:10;;;;;;;11.53;7.20;;;;;;;13.92;72.02;98538.97;4914078;29;20318;-62
2023/06/02 00:44:42;;;;;;;10.20;7.10;;;;;;;13.93;74.42;98546.66;4915027;29;20654;-62
2023/06/02 00:47:09;;;;;;;15.07;7.90;;;;;;;13.84;73.55;98547.69;4919788;28;20318;-62
2023/06/02 00:49:42;;;;;;;13.23;7.57;;;;;;;13.82;73.58;98544.44;4915246;29;20250;-62
2023/06/02 00:52:10;;;;;;;13.27;7.80;;;;;;;13.77;73.09;98534.47;4921600;28;20252;-62
2023/06/02 00:54:41;;;;;;;14.97;7.77;;;;;;;13.73;73.29;98541.06;4928248;28;20241;-62
2023/06/02 00:57:09;;;;;;;12.47;7.60;;;;;;;13.73;73.15;98541.06;4918509;28;20232;-62
2023/06/02 00:59:43;;;;;;;14.43;8.60;;;;;;;13.65;73.41;98528.81;4917452;28;20238;-62
2023/06/02 01:02:10;;;;;;;14.10;8.17;;;;;;;13.63;72.96;98537.84;4917936;29;20315;-62
2023/06/02 01:04:42;;;;;;;16.90;8.07;;;;;;;13.57;73.55;98529.66;4915657;28;20231;-62
2023/06/02 01:07:10;;;;;;;13.63;8.00;;;;;;;13.61;73.53;98527.53;4921081;29;20239;-62
2023/06/02 01:09:42;;;;;;;19.73;8.10;;;;;;;13.69;74.59;98531.91;4911951;28;20236;-62
2023/06/02 01:12:10;;;;;;;12.87;8.13;;;;;;;13.58;73.97;98530.50;4933372;28;20238;-62
2023/06/02 01:14:42;;;;;;;11.97;7.60;;;;;;;13.57;74.01;98521.78;4915894;28;20579;-62
2023/06/02 01:17:09;;;;;;;15.87;8.17;;;;;;;13.58;74.79;98533.91;4916895;29;20229;-62
2023/06/02 01:19:42;;;;;;;10.77;7.20;;;;;;;13.53;74.91;98532.81;4930176;28;20220;-62
2023/06/02 01:22:13;;;;;;;15.37;8.23;;;;;;;13.44;74.50;98526.78;4921119;28;20295;-62
2023/06/02 01:24:47;;;;;;;14.47;7.90;;;;;;;13.47;75.88;98523.81;4913871;28;20304;-62
2023/06/02 01:27:16;;;;;;;12.60;8.53;;;;;;;13.43;75.36;98527.78;4917832;29;20235;-62
2023/06/02 01:29:44;;;;;;;13.73;7.67;;;;;;;13.43;76.08;98525.16;4915783;28;20234;-62
2023/06/02 01:32:22;;;;;;;11.70;7.43;;;;;;;13.33;75.88;98535.00;4917097;28;20270;-62
2023/06/02 01:34:54;;;;;;;14.40;7.30;;;;;;;13.28;76.47;98531.06;4930229;28;20263;-62
2023/06/02 01:37:22;;;;;;;14.77;7.53;;;;;;;13.25;76.22;98528.00;4933309;29;20263;-62
2023/06/02 01:39:50;;;;;;;13.67;7.80;;;;;;;13.21;77.03;98526.69;4930108;28;20600;-62
2023/06/02 01:42:17;;;;;;;13.83;7.27;;;;;;;13.19;75.91;98520.81;4916296;29;20267;-62
2023/06/02 01:44:45;;;;;;;14.50;8.07;;;;;;;13.14;75.82;98522.13;4915098;28;20240;-62
2023/06/02 01:47:12;;;;;;;11.27;6.93;;;;;;;13.08;76.43;98524.63;4918431;29;20232;-62
2023/06/02 01:49:42;;;;;;;14.70;7.70;;;;;;;13.06;75.35;98529.22;4913776;29;20228;-62
2023/06/02 01:52:09;;;;;;;13.70;8.13;;;;;;;13.09;76.28;98534.13;4918192;28;20319;-62
2023/06/02 01:54:43;;;;;;;13.97;8.17;;;;;;;13.01;77.50;98532.34;4918934;28;20225;-62
2023/06/02 01:57:11;;;;;;;12.87;6.93;;;;;;;12.98;76.60;98533.50;4918413;29;20247;-62
2023/06/02 01:59:41;;;;;;;11.10;7.67;;;;;;;13.03;77.07;98524.31;4928241;28;20252;-62
2023/06/02 02:02:08;;;;;;;14.67;6.80;;;;;;;13.20;75.12;98530.31;4919340;29;20242;-62
2023/06/02 02:04:59;;;;;;;12.37;6.93;;;;;;;13.26;74.44;98527.00;4918200;28;20233;-62
2023/06/02 02:07:29;;;;;;;15.23;6.53;;;;;;;13.80;69.69;98525.41;4914072;28;20320;-62
2023/06/02 02:09:55;;;;;;;11.87;7.20;;;;;;;13.77;71.08;98525.78;4917908;28;20234;-62
2023/06/02 02:12:23;;;;;;;11.50;7.17;;;;;;;13.73;70.73;98518.28;4917849;29;20241;-62
2023/06/02 02:14:53;;;;;;;13.17;8.03;;;;;;;13.85;68.66;98518.69;4929442;28;20255;-62
2023/06/02 02:17:24;;;;;;;11.67;6.70;;;;;;;13.98;67.82;98531.19;4917007;29;20241;-62
2023/06/02 02:19:50;;;;;;;15.20;6.87;;;;;;;13.98;67.87;98536.44;4929351;29;20880;-62
2023/06/02 02:22:18;;;;;;;11.10;6.50;;;;;;;14.14;66.52;98526.81;4917404;28;20245;-62
2023/06/02 02:24:46;;;;;;;13.70;7.30;;;;;;;14.18;66.15;98528.09;4918421;28;20257;-62
2023/06/02 02:27:12;;;;;;;15.53;7.43;;;;;;;14.05;67.56;98533.13;4916830;29;20838;-62
2023/06/02 02:29:44;;;;;;;15.73;7.50;;;;;;;14.11;66.29;98522.75;4911804;29;20242;-62
2023/06/02 02:32:10;;;;;;;14.83;7.33;;;;;;;14.16;66.40;98523.03;4928721;28;20642;-62
2023/06/02 02:34:41;;;;;;;12.70;6.77;;;;;;;13.96;67.89;98530.56;4912832;28;20241;-62
2023/06/02 02:37:12;;;;;;;17.60;7.10;;;;;;;13.72;70.06;98535.00;4914991;29;20238;-62
2023/06/02 02:39:41;;;;;;;12.40;7.20;;;;;;;13.60;70.56;98535.56;4913467;28;20260;-62
2023/06/02 02:42:08;;;;;;;15.97;7.43;;;;;;;13.73;68.34;98539.25;4916694;29;20301;-62
2023/06/02 02:44:43;;;;;;;13.50;6.37;;;;;;;13.84;67.66;98539.81;4912195;29;20329;-62
2023/06/02 02:47:10;;;;;;;12.00;6.60;;;;;;;13.82;68.27;98534.75;4916375;28;20245;-62
2023/06/02 02:49:41;;;;;;;9.87;6.57;;;;;;;13.99;66.54;98543.34;4927880;28;20288;-62
2023/06/02 02:52:08;;;;;;;10.47;7.07;;;;;;;14.05;66.42;98548.88;4918217;28;20236;-62
2023/06/02 02:54:59;;;;;;;10.97;6.73;;;;;;;14.09;65.20;98542.28;4914204;28;20234;-62
2023/06/02 02:57:26;;;;;;;14.07;7.10;;;;;;;13.96;66.38;98537.63;4930929;28;20680;-62
2023/06/02 02:59:55;;;;;;;16.07;7.20;;;;;;;13.85;67.43;98544.91;4931476;28;20330;-62
2023/06/02 03:05:06;;;;;;;12.20;6.67;;;;;;;13.57;68.50;98548.03;5146971;23;20877;-62
2023/06/02 03:07:34;;;;;;;11.27;7.30;;;;;;;13.40;69.78;98543.81;4943531;28;20241;-62
2023/06/02 03:10:00;;;;;;;13.77;6.43;;;;;;;13.20;71.38;98549.50;4947044;28;20241;-62
2023/06/02 03:12:28;;;;;;;11.47;7.23;;;;;;;13.07;72.53;98546.56;4955054;28;20225;-62
2023/06/02 03:14:57;;;;;;;12.30;6.63;;;;;;;12.96;72.52;98545.94;4952543;28;20244;-62
2023/06/02 03:17:27;;;;;;;13.03;7.03;;;;;;;13.02;72.39;98548.88;4961566;28;20257;-62
2023/06/02 03:19:54;;;;;;;10.20;6.43;;;;;;;13.06;71.39;98552.81;4961334;28;20325;-62
2023/06/02 03:22:21;;;;;;;12.67;7.07;;;;;;;13.28;70.59;98553.88;4954044;28;20239;-62
2023/06/02 03:24:48;;;;;;;13.03;6.50;;;;;;;13.56;69.04;98559.50;4949921;28;20230;-61
2023/06/02 03:27:15;;;;;;;10.93;6.67;;;;;;;13.77;67.11;98562.53;4936371;28;20247;-61
2023/06/02 03:29:50;;;;;;;10.97;6.60;;;;;;;13.84;66.65;98564.28;4943130;28;20237;-61
2023/06/02 03:32:22;;;;;;;15.13;6.93;;;;;;;13.90;65.98;98573.25;5152149;23;20291;-62
2023/06/02 03:34:49;;;;;;;8.73;6.27;;;;;;;13.84;66.80;98566.06;4933531;28;20242;-62
2023/06/02 03:37:16;;;;;;;12.67;7.03;;;;;;;13.81;67.50;98561.16;4935574;28;20317;-62
2023/06/02 03:39:45;;;;;;;11.50;6.57;;;;;;;13.70;67.94;98562.38;4936141;28;20240;-62
2023/06/02 03:42:12;;;;;;;11.30;6.40;;;;;;;13.65;67.77;98560.28;4932161;28;20331;-62
2023/06/02 03:44:42;;;;;;;10.97;6.43;;;;;;;13.60;68.36;98559.16;4922539;28;20721;-62
2023/06/02 03:47:09;;;;;;;12.20;6.40;;;;;;;13.49;68.86;98565.63;4919246;29;20224;-62
2023/06/02 03:49:44;;;;;;;13.80;7.00;;;;;;;13.54;68.68;98565.91;4921580;28;20350;-62
2023/06/02 03:52:11;;;;;;;12.97;7.00;;;;;;;13.46;69.63;98563.34;4925250;28;20236;-62
2023/06/02 03:54:41;;;;;;;13.00;6.80;;;;;;;13.45;69.72;98566.94;4926038;28;20227;-62
2023/06/02 03:57:08;;;;;;;14.13;7.37;;;;;;;13.40;70.02;98570.03;4917342;28;20236;-62
2023/06/02 03:59:41;;;;;;;11.13;6.40;;;;;;;13.35;70.35;98569.72;4933817;28;20333;-62
2023/06/02 04:02:08;;;;;;;12.40;7.53;;;;;;;13.32;70.68;98568.28;4917873;28;20341;-62
2023/06/02 04:05:01;;;;;;;24.83;7.00;;;;;;;13.27;70.97;98562.72;4917637;28;20758;-62
2023/06/02 04:07:28;;;;;;;10.60;5.40;;;;;;;13.32;71.47;98570.06;4931417;28;20233;-62
2023/06/02 04:09:54;;;;;;;12.97;6.83;;;;;;;13.31;71.36;98568.41;4927810;29;20242;-62
2023/06/02 04:12:21;;;;;;;12.57;7.37;;;;;;;13.26;71.28;98572.38;4919542;28;20239;-62
2023/06/02 04:14:48;;;;;;;11.27;6.17;;;;;;;13.29;71.13;98579.91;4915428;28;20231;-62
2023/06/02 04:17:14;;;;;;;15.13;7.17;;;;;;;13.24;71.98;98579.63;4924473;29;20860;-62
2023/06/02 04:19:41;;;;;;;13.73;7.00;;;;;;;13.17;73.25;98577.81;4921044;28;20239;-62
2023/06/02 04:22:10;;;;;;;12.37;6.47;;;;;;;13.16;72.82;98584.88;4924004;29;20288;-62
2023/06/02 04:24:41;;;;;;;12.17;6.63;;;;;;;13.13;73.46;98580.78;4914964;28;20230;-62
2023/06/02 04:27:09;;;;;;;10.37;6.73;;;;;;;13.05;74.32;98580.81;4931031;28;20246;-62
2023/06/02 04:29:42;;;;;;;13.30;7.37;;;;;;;13.09;73.41;98584.72;4914943;28;20324;-62
2023/06/02 04:32:09;;;;;;;13.87;7.23;;;;;;;13.16;72.77;98586.66;4935409;28;20247;-62
2023/06/02 04:34:41;;;;;;;11.93;7.30;;;;;;;13.16;72.50;98592.75;4937353;28;20240;-62
2023/06/02 04:37:10;;;;;;;11.93;6.67;;;;;;;13.21;72.56;98592.22;4924167;29;20230;-62
2023/06/02 04:39:47;;;;;;;11.83;7.03;;;;;;;13.26;71.56;98593.34;4919301;28;20233;-62
2023/06/02 04:42:14;;;;;;;10.20;6.30;;;;;;;13.29;71.29;98586.97;4923840;29;20228;-62
2023/06/02 04:44:44;;;;;;;11.50;7.10;;;;;;;13.31;71.21;98584.16;4932417;28;20273;-62
2023/06/02 04:47:11;;;;;;;14.83;7.57;;;;;;;13.33;71.48;98587.41;4934902;28;20313;-62
2023/06/02 04:49:41;;;;;;;9.83;6.80;;;;;;;13.29;72.86;98586.97;4910353;28;20647;-62
2023/06/02 04:52:10;;;;;;;10.10;6.33;;;;;;;13.28;72.87;98583.50;4918446;29;20235;-63
2023/06/02 04:54:43;;;;;;;13.37;7.00;;;;;;;13.24;73.46;98586.66;4937913;28;20241;-63
2023/06/02 04:57:10;;;;;;;13.90;7.23;;;;;;;13.20;74.61;98590.59;4916093;29;20320;-63
2023/06/02 04:59:42;;;;;;;13.30;7.37;;;;;;;13.15;74.69;98588.50;4913050;28;20713;-63
2023/06/02 05:02:09;;;;;;;12.00;7.03;;;;;;;13.12;74.64;98579.16;4919527;28;20318;-63
2023/06/02 05:04:41;;;;;;;10.40;6.30;;;;;;;13.07;76.31;98581.44;4921237;28;20231;-63
2023/06/02 05:07:09;;;;;;;11.97;6.87;;;;;;;13.08;74.98;98582.28;4926811;29;20322;-63
2023/06/02 05:09:43;;;;;;;11.53;6.47;;;;;;;13.23;74.45;98587.63;4940653;28;20245;-63
2023/06/02 05:12:10;;;;;;;12.20;6.37;;;;;;;13.32;74.09;98577.91;4938558;28;20250;-63
2023/06/02 05:14:42;;;;;;;14.37;8.23;;;;;;;13.37;73.63;98579.06;4920007;28;20239;-63
2023/06/02 05:17:10;;;;;;;11.40;7.20;;;;;;;13.45;73.69;98587.91;4924922;29;20264;-63
2023/06/02 05:19:42;;;;;;;11.80;6.93;;;;;;;13.39;74.94;98589.38;4932173;28;20261;-63
2023/06/02 05:22:10;;;;;;;12.50;7.23;;;;;;;13.46;74.02;98594.78;4918846;29;20260;-63
2023/06/02 05:24:41;;;;;;;13.60;7.20;;;;;;;13.37;74.96;98588.72;4939873;28;20229;-63
2023/06/02 05:27:08;;;;;;;10.37;6.67;;;;;;;13.41;74.69;98592.63;4935008;28;20238;-63
2023/06/02 05:29:59;;;;;;;12.30;7.63;;;;;;;13.39;75.76;98592.81;4921097;28;20239;-63
2023/06/02 05:32:26;;;;;;;14.63;7.83;;;;;;;13.34;75.88;98602.16;4919596;28;20245;-63
2023/06/02 05:34:54;;;;;;;11.87;7.93;;;;;;;13.41;76.02;98604.00;4936508;28;20227;-63
2023/06/02 05:37:23;;;;;;;17.77;7.93;;;;;;;13.43;76.23;98606.44;4936092;28;20238;-63
2023/06/02 05:39:50;;;;;;;12.47;7.57;;;;;;;13.43;76.10;98607.25;4917315;29;20229;-63
2023/06/02 05:42:16;;;;;;;10.07;6.73;;;;;;;13.54;76.13;98605.25;4936689;28;20630;-63
2023/06/02 05:44:44;;;;;;;13.57;7.43;;;;;;;13.69;75.45;98614.03;4940510;28;20329;-63
2023/06/02 05:47:10;;;;;;;14.93;8.43;;;;;;;13.65;75.90;98618.00;4936254;28;20802;-63
2023/06/02 05:49:41;;;;;;;17.03;8.57;;;;;;;13.82;74.44;98596.91;4939917;28;20301;-63
2023/06/02 05:52:08;;;;;;;14.07;7.10;;;;;;;13.91;74.93;98597.69;4922130;28;20654;-63
2023/06/02 05:55:01;;;;;;;14.00;7.23;;;;;;;14.08;73.99;98607.09;4920955;28;20228;-63
2023/06/02 05:57:27;;;;;;;10.57;7.37;;;;;;;14.26;72.68;98606.81;4923378;29;20295;-63
2023/06/02 05:59:55;;;;;;;16.13;7.57;;;;;;;14.34;73.02;98607.75;4922225;28;20390;-63
2023/06/02 06:02:21;;;;;;;13.40;7.30;;;;;;;14.51;70.88;98600.53;4921639;28;20238;-63
2023/06/02 06:04:49;;;;;;;10.93;7.70;;;;;;;14.79;70.67;98605.25;4934359;28;20239;-63
2023/06/02 06:07:16;;;;;;;9.93;7.10;;;;;;;15.01;71.58;98606.19;4942022;28;20224;-63
2023/06/02 06:09:42;;;;;;;12.70;7.27;;;;;;;15.12;69.96;98603.13;4920758;28;20253;-63
2023/06/02 06:12:11;;;;;;;10.40;7.07;;;;;;;15.14;68.76;98608.22;4933691;28;20301;-63
2023/06/02 06:14:41;;;;;;;9.67;6.67;;;;;;;15.20;71.36;98610.13;4939625;28;20305;-63
2023/06/02 06:17:08;;;;;;;9.53;6.40;;;;;;;15.35;68.36;98602.22;4920364;29;20255;-63
2023/06/02 06:20:00;;;;;;;12.20;7.10;;;;;;;15.24;70.47;98607.94;4917924;28;20757;-63
2023/06/02 06:22:27;;;;;;;12.90;6.87;;;;;;;15.37;69.77;98608.09;4918485;28;20235;-63
2023/06/02 06:24:54;;;;;;;11.67;7.20;;;;;;;15.35;69.26;98604.84;4918178;29;20245;-63
2023/06/02 06:27:22;;;;;;;10.63;7.13;;;;;;;15.25;69.42;98615.66;4925859;29;20254;-63
2023/06/02 06:29:49;;;;;;;9.73;6.67;;;;;;;15.39;69.07;98608.75;4923247;28;20362;-63
2023/06/02 06:32:16;;;;;;;12.93;7.37;;;;;;;15.22;69.76;98605.50;4935071;28;20249;-63
2023/06/02 06:34:44;;;;;;;11.57;7.53;;;;;;;15.45;68.94;98602.75;4930853;28;20235;-63
2023/06/02 06:37:10;;;;;;;10.57;7.30;;;;;;;15.53;68.82;98616.81;4919829;29;20291;-63
2023/06/02 06:39:42;;;;;;;11.33;7.03;;;;;;;15.53;68.63;98614.97;4933017;28;20616;-63
2023/06/02 06:42:09;;;;;;;10.73;6.63;;;;;;;15.77;67.30;98621.75;4925942;29;20698;-63
2023/06/02 06:44:55;;;;;;;10.10;6.67;;;;;;;15.66;68.41;98627.50;4921987;28;20227;-63
2023/06/02 06:47:21;;;;;;;10.17;6.10;;;;;;;15.69;68.21;98623.66;4941831;28;20290;-63
2023/06/02 06:49:49;;;;;;;10.07;6.93;;;;;;;15.98;67.65;98632.53;4922894;28;20267;-63
2023/06/02 06:52:16;;;;;;;11.97;7.07;;;;;;;15.79;67.80;98637.34;4921161;28;20228;-63
2023/06/02 06:54:43;;;;;;;11.03;6.63;;;;;;;15.81;67.19;98629.28;4932898;28;20273;-63
2023/06/02 06:57:10;;;;;;;10.47;6.70;;;;;;;15.87;68.27;98636.47;4919720;29;20258;-63
2023/06/02 06:59:42;;;;;;;11.37;7.27;;;;;;;15.97;67.25;98636.97;4918045;28;20232;-63
2023/06/02 07:02:10;;;;;;;12.10;6.10;;;;;;;16.11;67.20;98631.84;4922286;28;20245;-63
2023/06/02 07:04:41;;;;;;;10.50;6.93;;;;;;;16.21;66.23;98635.84;4916700;28;20227;-63
2023/06/02 07:07:08;;;;;;;9.17;6.33;;;;;;;16.04;67.50;98644.97;4916708;29;20240;-63
2023/06/02 07:09:59;;;;;;;10.67;6.73;;;;;;;16.29;66.79;98636.72;4918615;28;20236;-63
2023/06/02 07:12:26;;;;;;;14.53;7.27;;;;;;;16.44;65.89;98639.28;4917349;28;20276;-63
2023/06/02 07:14:54;;;;;;;13.80;6.70;;;;;;;16.43;66.30;98645.56;4920691;28;20236;-63
2023/06/02 07:17:22;;;;;;;11.57;6.43;;;;;;;16.53;66.36;98641.59;4918020;29;20715;-63
2023/06/02 07:19:48;;;;;;;8.60;6.13;;;;;;;16.41;66.23;98644.91;4918249;28;20692;-63
2023/06/02 07:22:15;;;;;;;10.73;6.43;;;;;;;16.53;65.55;98632.88;4921166;28;20756;-63
2023/06/02 07:24:43;;;;;;;10.87;6.23;;;;;;;16.36;65.77;98646.31;4916429;28;20603;-63
2023/06/02 07:27:10;;;;;;;10.93;6.93;;;;;;;16.57;66.15;98641.22;4922644;28;20250;-63
2023/06/02 07:29:41;;;;;;;10.30;6.33;;;;;;;16.78;66.19;98654.38;4914781;28;20237;-63
2023/06/02 07:32:09;;;;;;;8.77;6.17;;;;;;;16.83;64.74;98646.69;4917523;28;20321;-63
2023/06/02 07:34:42;;;;;;;10.87;6.83;;;;;;;16.59;65.36;98640.03;4916333;28;20234;-63
2023/06/02 07:37:09;;;;;;;11.73;6.90;;;;;;;16.80;65.59;98641.00;4921543;28;20231;-63
2023/06/02 07:39:41;;;;;;;11.90;6.90;;;;;;;16.87;66.60;98647.16;4920618;28;20248;-63
2023/06/02 07:42:08;;;;;;;9.93;6.63;;;;;;;16.77;65.77;98651.94;4917773;29;20253;-63
2023/06/02 07:45:00;;;;;;;10.13;6.70;;;;;;;16.82;65.06;98652.97;4920097;28;20287;-63
2023/06/02 07:47:26;;;;;;;9.13;6.87;;;;;;;16.82;65.71;98658.25;4917301;28;20241;-63
2023/06/02 07:49:54;;;;;;;12.23;6.53;;;;;;;17.06;65.19;98665.97;4921371;28;20357;-63
2023/06/02 07:52:21;;;;;;;9.40;6.17;;;;;;;16.93;64.73;98661.38;4915943;28;20244;-63
2023/06/02 07:54:47;;;;;;;10.93;6.03;;;;;;;16.87;65.41;98659.50;4917501;28;20241;-63
2023/06/02 07:57:14;;;;;;;11.53;7.00;;;;;;;17.01;64.87;98661.28;4917678;29;20287;-63
2023/06/02 07:59:41;;;;;;;11.37;6.90;;;;;;;16.91;65.13;98658.13;4915957;28;20232;-63
2023/06/02 08:02:08;;;;;;;12.13;6.07;;;;;;;16.80;66.04;98652.34;4919881;28;20746;-63
2023/06/02 08:05:01;;;;;;;13.17;5.93;;;;;;;16.96;65.85;98653.09;4916791;28;20236;-63
2023/06/02 08:07:28;;;;;;;8.80;5.47;;;;;;;16.93;65.44;98648.19;4918068;28;20232;-63
2023/06/02 08:09:55;;;;;;;10.33;6.93;;;;;;;17.00;65.31;98653.53;4917645;28;20283;-63
2023/06/02 08:12:22;;;;;;;11.53;6.97;;;;;;;17.20;65.03;98654.50;4919375;28;20247;-63
2023/06/02 08:14:48;;;;;;;12.10;6.50;;;;;;;17.26;64.35;98658.19;4919684;28;20235;-63
2023/06/02 08:17:15;;;;;;;10.80;7.23;;;;;;;17.15;64.43;98662.16;4919534;29;20306;-63
2023/06/02 08:19:42;;;;;;;11.07;7.70;;;;;;;17.34;64.40;98665.13;4917953;28;20228;-64
2023/06/02 08:22:10;;;;;;;10.83;6.83;;;;;;;17.33;64.17;98656.41;4919846;29;20237;-64
2023/06/02 08:24:41;;;;;;;12.97;7.87;;;;;;;17.36;63.62;98647.28;4916590;28;20248;-63
2023/06/02 08:27:08;;;;;;;13.57;6.73;;;;;;;17.36;64.05;98663.13;4920304;28;20241;-63
2023/06/02 08:30:00;;;;;;;11.80;7.07;;;;;;;17.29;64.19;98662.25;4917954;28;21080;-63
2023/06/02 08:32:27;;;;;;;14.77;6.70;;;;;;;17.32;63.98;98657.44;4915327;28;21539;-63
2023/06/02 08:34:54;;;;;;;11.13;7.57;;;;;;;17.56;64.01;98648.22;4918055;28;20292;-63
2023/06/02 08:37:23;;;;;;;10.57;6.60;;;;;;;17.63;63.91;98652.72;4919298;28;20283;-63
2023/06/02 08:39:50;;;;;;;14.07;6.83;;;;;;;17.78;63.61;98644.63;4923152;28;20851;-63
2023/06/02 08:42:17;;;;;;;10.33;6.73;;;;;;;17.92;62.51;98645.50;4921643;28;20574;-63
2023/06/02 08:44:45;;;;;;;11.57;7.60;;;;;;;17.60;62.24;98653.09;4918589;28;20234;-64
2023/06/02 08:47:13;;;;;;;9.33;6.53;;;;;;;17.70;62.94;98650.91;4923029;28;20681;-63
2023/06/02 08:49:42;;;;;;;12.07;6.60;;;;;;;17.72;62.69;98648.88;4919151;28;20698;-63
2023/06/02 08:52:12;;;;;;;9.40;6.33;;;;;;;17.72;62.48;98648.88;4923810;28;20276;-63
2023/06/02 08:54:43;;;;;;;8.97;6.50;;;;;;;18.06;62.66;98649.84;4917479;28;20234;-63
2023/06/02 08:57:12;;;;;;;11.03;6.97;;;;;;;18.08;62.16;98655.72;4925106;28;20768;-63
2023/06/02 08:59:41;;;;;;;9.40;6.30;;;;;;;18.05;61.82;98637.63;4919007;28;20708;-63
2023/06/02 09:02:08;;;;;;;10.97;6.33;;;;;;;18.05;62.35;98642.13;4924228;28;20252;-63
2023/06/02 09:05:02;;;;;;;10.20;6.47;;;;;;;18.19;61.48;98640.31;4921229;28;20300;-63
2023/06/02 09:07:30;;;;;;;8.57;6.30;;;;;;;18.20;61.08;98644.59;4919676;28;20296;-63
2023/06/02 09:09:58;;;;;;;10.20;6.43;;;;;;;18.14;61.00;98652.28;4922172;28;20242;-63
2023/06/02 09:12:24;;;;;;;9.20;6.83;;;;;;;18.23;61.52;98650.31;4921404;28;20247;-63
2023/06/02 09:15:07;;;;;;;13.70;6.87;;;;;;;18.46;60.42;98640.38;4920418;28;20236;-63
2023/06/02 09:17:33;;;;;;;8.40;6.30;;;;;;;18.58;60.52;98639.56;4919886;28;20317;-63
2023/06/02 09:20:06;;;;;;;9.87;6.87;;;;;;;18.67;59.95;98634.88;4923415;28;20238;-63
2023/06/02 09:22:33;;;;;;;8.43;6.30;;;;;;;18.67;59.74;98647.28;4921461;28;20301;-63
2023/06/02 09:25:01;;;;;;;9.50;6.57;;;;;;;18.86;60.07;98646.47;4919613;28;20657;-63
2023/06/02 09:27:28;;;;;;;10.30;7.43;;;;;;;18.84;59.03;98648.50;4919412;28;20699;-63
2023/06/02 09:30:00;;;;;;;9.10;6.43;;;;;;;18.73;59.57;98644.66;4919517;28;20239;-63
2023/06/02 09:32:26;;;;;;;10.63;6.30;;;;;;;19.04;59.29;98639.78;4916508;28;20256;-63
2023/06/02 09:34:53;;;;;;;13.37;6.67;;;;;;;19.11;58.82;98637.09;4920685;28;21015;-63
2023/06/02 09:37:20;;;;;;;10.47;7.40;;;;;;;19.18;58.17;98640.56;4920844;28;20808;-63
2023/06/02 09:39:48;;;;;;;10.20;5.60;;;;;;;19.13;58.31;98640.38;4918576;28;20234;-63
2023/06/02 09:42:19;;;;;;;11.00;6.83;;;;;;;19.13;58.58;98635.06;4924534;28;20741;-63
2023/06/02 09:45:04;;;;;;;9.00;6.73;;;;;;;19.00;58.87;98651.78;4913725;28;20243;-63
2023/06/02 09:47:37;;;;;;;7.90;5.57;;;;;;;19.09;58.12;98634.69;4920309;28;20581;-63
2023/06/02 09:50:05;;;;;;;12.13;6.10;;;;;;;19.20;58.53;98632.44;4921496;28;20583;-63
2023/06/02 09:52:32;;;;;;;8.77;6.90;;;;;;;19.24;57.61;98637.09;4920477;28;20328;-63
2023/06/02 09:54:59;;;;;;;7.27;5.37;;;;;;;19.45;57.92;98643.16;4920020;28;20236;-63
2023/06/02 09:57:28;;;;;;;8.30;5.97;;;;;;;19.37;57.12;98649.50;4922050;28;20239;-63
2023/06/02 09:59:57;;;;;;;9.37;6.80;;;;;;;19.34;57.55;98641.97;4925675;28;20552;-63
2023/06/02 10:02:24;;;;;;;9.17;6.20;;;;;;;19.38;57.27;98645.00;4921500;28;20248;-63
2023/06/02 10:04:51;;;;;;;10.03;6.30;;;;;;;19.41;57.06;98656.00;4918484;28;20642;-63
2023/06/02 10:07:36;;;;;;;11.07;6.77;;;;;;;19.59;56.52;98639.44;4921357;28;20242;-63
2023/06/02 10:10:30;;;;;;;11.37;5.67;;;;;;;19.86;56.29;98649.09;4919662;28;20249;-64
2023/06/02 10:13:15;;;;;;;8.47;6.27;;;;;;;19.67;56.66;98648.97;4915728;28;20259;-64
2023/06/02 10:16:06;;;;;;;9.30;6.30;;;;;;;19.58;57.12;98639.66;4918360;28;20243;-63
2023/06/02 10:19:02;;;;;;;12.93;6.83;;;;;;;19.53;56.26;98644.78;4918394;28;20639;-63
2023/06/02 10:21:48;;;;;;;10.90;6.63;;;;;;;19.54;56.30;98639.25;4918147;29;20240;-63
2023/06/02 10:24:25;;;;;;;8.73;6.73;;;;;;;19.75;55.88;98646.09;4920017;28;20329;-63
2023/06/02 10:27:07;;;;;;;14.77;6.47;;;;;;;19.80;55.91;98656.06;4919577;28;20261;-63
2023/06/02 10:29:36;;;;;;;13.33;6.63;;;;;;;19.91;55.09;98644.84;4918172;28;20294;-63
2023/06/02 10:32:22;;;;;;;10.07;5.93;;;;;;;19.94;56.11;98648.09;4919788;28;20234;-63
2023/06/02 10:34:52;;;;;;;11.60;7.33;;;;;;;19.78;56.06;98642.22;4920090;28;20234;-63
2023/06/02 10:37:20;;;;;;;10.73;6.23;;;;;;;20.01;55.50;98647.03;4921636;28;20238;-63
2023/06/02 10:39:52;;;;;;;11.10;6.17;;;;;;;20.08;55.37;98639.06;4917620;28;20257;-63
2023/06/02 10:42:21;;;;;;;7.63;5.50;;;;;;;20.44;54.22;98634.13;4922198;28;20334;-63
2023/06/02 10:44:49;;;;;;;7.50;5.60;;;;;;;20.26;53.88;98632.19;4920050;28;20242;-63
2023/06/02 10:47:36;;;;;;;9.10;6.47;;;;;;;20.37;54.02;98644.78;4922260;28;20902;-63
2023/06/02 10:50:05;;;;;;;9.63;5.93;;;;;;;20.49;55.15;98637.75;4917752;28;20224;-63
2023/06/02 10:52:33;;;;;;;14.77;6.07;;;;;;;20.29;53.46;98637.06;4917858;28;20262;-63
2023/06/02 10:55:25;;;;;;;10.30;6.17;;;;;;;20.03;53.66;98630.94;4926036;28;20248;-64
2023/06/02 10:57:52;;;;;;;9.40;6.00;;;;;;;20.30;53.65;98631.56;4917588;28;20274;-64
2023/06/02 11:00:45;;;;;;;8.90;6.10;;;;;;;20.14;53.93;98640.81;4919485;28;20901;-64
2023/06/02 11:03:31;;;;;;;8.20;5.47;;;;;;;20.40;52.93;98627.63;4915588;28;20249;-64
2023/06/02 11:06:17;;;;;;;7.63;5.70;;;;;;;20.70;52.93;98632.28;4918139;28;20262;-64
2023/06/02 11:08:44;;;;;;;10.90;6.20;;;;;;;20.81;52.00;98631.59;4916411;28;20314;-63
2023/06/02 11:11:11;;;;;;;8.70;5.53;;;;;;;20.85;51.82;98624.03;4918422;28;20238;-63
2023/06/02 11:13:56;;;;;;;8.00;5.73;;;;;;;20.76;50.94;98629.59;4918955;28;20232;-63
2023/06/02 11:16:27;;;;;;;9.53;5.73;;;;;;;21.25;52.50;98626.28;4918953;28;20248;-62
2023/06/02 11:18:54;;;;;;;8.10;5.37;;;;;;;21.33;50.31;98633.16;4915939;29;20233;-62
2023/06/02 11:21:22;;;;;;;8.27;5.73;;;;;;;21.57;50.45;98628.00;4917163;28;20607;-63
2023/06/02 11:23:49;;;;;;;11.73;5.77;;;;;;;21.31;50.19;98637.88;4914436;28;20230;-62
2023/06/02 11:26:18;;;;;;;8.37;5.90;;;;;;;21.26;50.53;98638.53;4921091;28;20232;-62
2023/06/02 11:28:44;;;;;;;9.03;5.57;;;;;;;21.35;49.86;98626.59;4917830;28;20319;-62
2023/06/02 11:31:12;;;;;;;9.17;5.77;;;;;;;21.62;49.88;98636.94;4921197;28;20244;-62
2023/06/02 11:33:41;;;;;;;8.63;5.53;;;;;;;21.76;50.04;98634.13;4917732;28;20240;-62
2023/06/02 11:36:11;;;;;;;14.87;6.20;;;;;;;21.94;48.88;98631.44;4916343;29;20320;-62
2023/06/02 11:38:39;;;;;;;7.53;5.47;;;;;;;21.73;49.12;98631.91;4919977;28;20317;-62
2023/06/02 11:41:10;;;;;;;9.57;5.77;;;;;;;21.65;49.88;98633.03;4916352;29;20233;-62
2023/06/02 11:43:36;;;;;;;7.50;5.53;;;;;;;21.75;48.97;98629.84;4914775;28;20291;-62
2023/06/02 11:46:07;;;;;;;8.63;5.90;;;;;;;21.44;49.64;98618.31;4918494;28;20308;-62